Time;durP1;ratioP1;P1;durP2;ratioP2;P2;SDS_P1;SDS_P2;PMS_P1;PMS_P2;Temp;Humidity;BMP_temperature;BMP_pressure;BME280_temperature;BME280_humidity;BME280_pressure;Samples;Min_cycle;Max_cycle;Signal;HPM_P1;HPM_P2
2023/01/31 00:01:32;;;;;;;32.20;18.60;;;;;;;0.18;74.33;99504.25;1734000;82;21223;-79
2023/01/31 00:04:39;;;;;;;33.85;18.32;;;;;;;0.01;75.21;99496.77;1735271;82;21822;-79
2023/01/31 00:07:46;;;;;;;34.90;18.30;;;;;;;-0.01;75.99;99496.88;1733944;82;21178;-80
2023/01/31 00:10:51;;;;;;;31.20;17.60;;;;;;;0.18;75.33;99501.56;1735205;82;21728;-79
2023/01/31 00:13:59;;;;;;;31.12;18.62;;;;;;;0.13;75.77;99494.87;1735235;82;21200;-79
2023/01/31 00:17:06;;;;;;;33.08;18.30;;;;;;;0.18;75.56;99508.78;1733799;82;21797;-79
2023/01/31 00:20:13;;;;;;;35.38;20.20;;;;;;;0.38;74.66;99502.58;1735131;82;21204;-79
2023/01/31 00:23:18;;;;;;;36.90;19.05;;;;;;;0.40;74.36;99503.28;1736198;82;21172;-79
2023/01/31 00:26:30;;;;;;;34.73;19.52;;;;;;;0.70;73.43;99501.12;1735774;82;21239;-79
2023/01/31 00:29:36;;;;;;;33.20;19.87;;;;;;;0.44;73.84;99491.28;1733811;82;21247;-79
2023/01/31 00:32:41;;;;;;;39.42;21.45;;;;;;;0.23;73.79;99493.10;1735238;82;21192;-79
2023/01/31 00:35:48;;;;;;;60.58;28.45;;;;;;;0.08;74.07;99494.41;1734302;81;21272;-80
2023/01/31 00:38:59;;;;;;;44.42;22.98;;;;;;;0.23;73.48;99492.61;1735031;82;21243;-80
2023/01/31 00:42:00;;;;;;;39.23;20.88;;;;;;;0.08;73.48;99488.53;1735114;82;21773;-80
2023/01/31 00:44:53;;;;;;;39.75;20.80;;;;;;;-0.07;73.08;99491.18;1735031;82;21735;-79
2023/01/31 00:47:58;;;;;;;42.23;23.07;;;;;;;-0.36;73.37;99487.74;1734956;81;21268;-79
2023/01/31 00:51:04;;;;;;;41.70;21.12;;;;;;;-0.61;74.22;99494.29;1733684;82;21204;-79
2023/01/31 00:54:09;;;;;;;47.17;20.95;;;;;;;-0.71;74.41;99483.91;1733707;82;21211;-80
2023/01/31 00:57:14;;;;;;;41.42;21.30;;;;;;;-0.82;74.31;99486.62;1733803;82;21235;-81
2023/01/31 01:00:21;;;;;;;38.35;21.57;;;;;;;-0.94;74.44;99488.48;1735287;82;21821;-81
2023/01/31 01:03:26;;;;;;;41.77;22.02;;;;;;;-0.97;74.89;99491.40;1735269;82;21204;-79
2023/01/31 01:06:32;;;;;;;40.00;20.95;;;;;;;-1.01;74.71;99491.77;1734794;82;21259;-79
2023/01/31 01:09:39;;;;;;;43.68;21.65;;;;;;;-1.03;74.79;99486.53;1735091;82;21234;-79
2023/01/31 01:12:46;;;;;;;43.68;23.57;;;;;;;-0.79;74.11;99491.75;1735398;82;21192;-80
2023/01/31 01:15:53;;;;;;;41.23;22.25;;;;;;;-0.98;74.72;99485.67;1735018;82;21196;-79
2023/01/31 01:18:59;;;;;;;39.75;21.90;;;;;;;-0.97;74.95;99478.47;1735273;82;21251;-78
2023/01/31 01:22:05;;;;;;;44.73;22.70;;;;;;;-0.72;74.41;99477.33;1735388;82;21794;-79
2023/01/31 01:25:10;;;;;;;41.42;22.05;;;;;;;-0.73;73.79;99474.28;1735153;82;21188;-79
2023/01/31 01:28:17;;;;;;;40.55;21.10;;;;;;;-0.82;74.10;99464.64;1733884;82;21204;-80
2023/01/31 01:31:31;;;;;;;36.28;20.32;;;;;;;-0.86;74.34;99465.87;1734984;82;21885;-79
2023/01/31 01:34:37;;;;;;;37.30;19.12;;;;;;;-0.83;74.23;99457.58;1735184;82;21219;-79
2023/01/31 01:37:43;;;;;;;40.10;21.37;;;;;;;-0.90;74.50;99456.84;1734226;82;21227;-78
2023/01/31 01:40:49;;;;;;;39.67;20.20;;;;;;;-1.03;74.65;99461.03;1735641;82;21192;-79
2023/01/31 01:43:58;;;;;;;36.58;19.87;;;;;;;-1.12;75.06;99459.08;1735150;82;21240;-80
2023/01/31 01:47:04;;;;;;;32.13;18.83;;;;;;;-1.11;75.47;99462.97;1735174;82;21232;-80
2023/01/31 01:50:40;;;;;;;35.52;19.48;;;;;;;-0.81;74.80;99452.92;1722415;82;21187;-79
2023/01/31 01:53:47;;;;;;;29.40;18.00;;;;;;;-0.80;74.57;99447.94;1749806;82;22222;-79
2023/01/31 01:56:56;;;;;;;98.52;35.08;;;;;;;-0.79;74.28;99450.98;1724120;83;21236;-79
2023/01/31 02:00:15;;;;;;;85.28;33.45;;;;;;;-0.78;74.39;99449.99;1750583;82;21176;-79
2023/01/31 02:03:14;;;;;;;42.13;21.10;;;;;;;-0.75;74.39;99456.08;1724812;83;21240;-79
2023/01/31 02:06:10;;;;;;;37.05;17.45;;;;;;;-1.09;75.54;99453.45;1749450;82;21802;-81
2023/01/31 02:09:20;;;;;;;27.13;14.80;;;;;;;-1.22;75.85;99452.72;1724571;83;21192;-81
2023/01/31 02:12:28;;;;;;;28.02;15.08;;;;;;;-1.21;75.73;99451.27;1750977;82;21177;-80
2023/01/31 02:15:36;;;;;;;23.50;14.00;;;;;;;-1.19;75.95;99445.28;1724768;83;21252;-81
2023/01/31 02:18:42;;;;;;;26.62;14.80;;;;;;;-1.35;76.12;99448.34;1749996;82;21239;-80
2023/01/31 02:22:30;;;;;;;26.97;14.68;;;;;;;-1.42;76.28;99449.79;1718743;83;22405;-80
2023/01/31 02:26:05;;;;;;;24.27;15.03;;;;;;;-1.55;76.54;99450.42;1700477;84;21726;-78
2023/01/31 02:29:09;;;;;;;24.72;14.60;;;;;;;-1.65;76.82;99452.08;1721504;83;21745;-78
2023/01/31 02:32:56;;;;;;;24.45;14.87;;;;;;;-1.63;76.91;99454.17;1722890;83;21797;-79
2023/01/31 02:36:34;;;;;;;26.85;15.43;;;;;;;-1.65;77.11;99453.42;1715197;83;21201;-79
2023/01/31 02:40:01;;;;;;;29.30;17.10;;;;;;;-1.66;77.57;99458.42;1694587;84;21193;-79
2023/01/31 02:43:17;;;;;;;26.90;14.95;;;;;;;-1.41;77.56;99451.98;1713235;84;21181;-79
2023/01/31 02:46:24;;;;;;;29.75;16.65;;;;;;;-1.38;78.01;99460.65;1711882;84;21204;-79
2023/01/31 02:49:51;;;;;;;28.85;16.97;;;;;;;-1.41;77.97;99458.23;1711755;82;21212;-79
2023/01/31 02:53:17;;;;;;;27.98;15.78;;;;;;;-1.24;76.96;99452.00;1713314;84;21189;-79
2023/01/31 02:56:26;;;;;;;33.67;17.60;;;;;;;-1.18;75.87;99444.79;1713348;83;21188;-79
2023/01/31 02:59:34;;;;;;;32.65;17.73;;;;;;;-1.20;74.75;99446.76;1712218;84;21236;-79
2023/01/31 03:02:41;;;;;;;28.92;16.95;;;;;;;-1.46;75.74;99442.11;1713558;83;21811;-79
2023/01/31 03:05:47;;;;;;;29.45;17.52;;;;;;;-1.62;76.30;99443.32;1713353;84;21204;-79
2023/01/31 03:08:53;;;;;;;31.77;17.65;;;;;;;-1.61;76.06;99446.36;1712613;84;21260;-79
2023/01/31 03:12:30;;;;;;;33.60;18.90;;;;;;;-1.56;75.67;99439.30;1713311;84;21189;-79
2023/01/31 03:19:29;;;;;;;30.10;18.42;;;;;;;-1.63;75.42;99435.41;1712145;84;21228;-79
2023/01/31 03:22:43;;;;;;;37.40;19.17;;;;;;;-1.71;75.99;99434.66;1713276;84;21184;-79
2023/01/31 03:25:49;;;;;;;30.17;17.07;;;;;;;-1.59;75.93;99431.52;1713678;84;21213;-80
2023/01/31 03:28:57;;;;;;;36.17;20.27;;;;;;;-1.53;76.31;99436.87;1712537;84;21204;-80
2023/01/31 03:32:12;;;;;;;31.68;18.15;;;;;;;-1.43;76.34;99429.31;1713384;84;21213;-80
2023/01/31 03:35:19;;;;;;;41.98;22.15;;;;;;;-1.20;76.33;99432.00;1711821;84;21767;-78
2023/01/31 03:38:33;;;;;;;43.68;20.85;;;;;;;-1.21;76.11;99431.64;1722197;83;21228;-81
2023/01/31 03:42:07;;;;;;;35.78;19.42;;;;;;;-1.05;76.35;99429.41;1731624;83;21739;-81
2023/01/31 03:45:17;;;;;;;26.20;15.18;;;;;;;-1.10;76.37;99430.27;1731521;83;21216;-81
2023/01/31 03:48:24;;;;;;;28.42;15.70;;;;;;;-1.17;76.60;99448.72;1729059;81;21263;-81
2023/01/31 03:51:34;;;;;;;24.30;13.93;;;;;;;-1.47;76.63;99445.28;1730399;83;21248;-79
2023/01/31 03:55:00;;;;;;;22.77;13.00;;;;;;;-1.61;77.34;99442.34;1709329;83;21279;-79
2023/01/31 03:58:07;;;;;;;24.80;14.25;;;;;;;-1.57;77.09;99437.59;1730755;83;21188;-79
2023/01/31 04:01:14;;;;;;;23.75;14.07;;;;;;;-1.76;77.43;99434.65;1730726;83;21196;-79
2023/01/31 04:04:38;;;;;;;28.70;15.45;;;;;;;-1.89;78.00;99442.78;1730126;83;21216;-79
2023/01/31 04:07:44;;;;;;;26.82;13.93;;;;;;;-1.90;78.64;99446.44;1730629;83;21204;-79
2023/01/31 04:10:51;;;;;;;21.48;13.13;;;;;;;-1.78;78.87;99448.19;1730507;83;21196;-79
2023/01/31 04:13:59;;;;;;;28.87;15.03;;;;;;;-1.64;77.98;99452.48;1730507;83;21200;-79
2023/01/31 04:17:05;;;;;;;26.55;15.83;;;;;;;-1.86;79.46;99465.34;1729024;82;21211;-79
2023/01/31 04:20:13;;;;;;;26.85;15.15;;;;;;;-1.81;79.79;99461.33;1729708;83;21227;-79
2023/01/31 04:23:18;;;;;;;33.18;18.52;;;;;;;-1.69;79.65;99459.53;1729232;83;21200;-79
2023/01/31 04:26:25;;;;;;;29.35;15.28;;;;;;;-1.57;80.05;99465.76;1730460;83;21204;-79
2023/01/31 04:29:30;;;;;;;36.38;17.15;;;;;;;-1.47;80.61;99472.59;1729812;83;21766;-79
2023/01/31 04:32:37;;;;;;;27.07;15.23;;;;;;;-1.26;79.93;99474.09;1730531;83;21212;-79
2023/01/31 04:35:48;;;;;;;30.72;17.10;;;;;;;-0.96;79.42;99472.11;1729240;83;21282;-79
2023/01/31 04:38:53;;;;;;;28.00;16.57;;;;;;;-1.00;78.78;99470.16;1730055;83;21228;-79
2023/01/31 04:41:59;;;;;;;27.80;15.40;;;;;;;-1.02;78.56;99469.44;1729254;83;21212;-81
2023/01/31 04:45:06;;;;;;;32.38;18.75;;;;;;;-0.85;78.20;99474.77;1729241;83;21208;-81
2023/01/31 04:48:13;;;;;;;32.70;17.77;;;;;;;-0.98;77.90;99473.59;1729155;81;21235;-80
2023/01/31 04:51:19;;;;;;;32.60;15.30;;;;;;;-1.31;79.12;99467.25;1729101;83;21236;-79
2023/01/31 04:54:26;;;;;;;31.35;17.10;;;;;;;-1.21;79.11;99470.06;1730316;83;21754;-79
2023/01/31 04:57:32;;;;;;;29.20;16.45;;;;;;;-0.97;78.61;99467.73;1730492;83;21211;-79
2023/01/31 05:00:37;;;;;;;27.35;15.75;;;;;;;-0.82;78.55;99463.30;1729447;83;21219;-81
2023/01/31 05:03:43;;;;;;;22.58;13.38;;;;;;;-0.69;78.45;99465.00;1730499;83;21204;-81
2023/01/31 05:06:49;;;;;;;22.58;14.13;;;;;;;-0.79;77.98;99462.22;1730414;83;21181;-80
2023/01/31 05:09:55;;;;;;;27.30;13.32;;;;;;;-0.70;77.56;99464.15;1729950;83;21779;-79
2023/01/31 05:13:02;;;;;;;23.67;13.83;;;;;;;-0.59;76.93;99459.23;1730795;83;21192;-79
2023/01/31 05:16:09;;;;;;;24.65;14.05;;;;;;;-0.52;77.17;99457.27;1730522;83;21197;-79
2023/01/31 05:19:15;;;;;;;28.35;14.87;;;;;;;-0.81;77.46;99457.44;1730385;83;21255;-79
2023/01/31 05:22:21;;;;;;;25.60;15.40;;;;;;;-0.83;77.62;99463.44;1730090;83;21232;-79
2023/01/31 05:25:26;;;;;;;25.43;14.87;;;;;;;-0.77;77.71;99465.13;1746034;82;21204;-79
2023/01/31 05:28:26;;;;;;;27.65;13.88;;;;;;;-0.92;78.00;99464.18;1710534;83;21180;-79
2023/01/31 05:31:21;;;;;;;22.32;13.38;;;;;;;-0.92;78.62;99470.41;1727107;82;21244;-81
2023/01/31 05:34:27;;;;;;;28.87;15.35;;;;;;;-0.93;78.84;99474.07;1728423;81;21192;-81
2023/01/31 05:37:33;;;;;;;26.70;14.40;;;;;;;-0.88;79.12;99485.29;1728261;81;21239;-81
2023/01/31 05:40:39;;;;;;;29.32;17.92;;;;;;;-0.75;79.10;99484.28;1725922;81;21227;-82
2023/01/31 05:43:45;;;;;;;24.52;15.35;;;;;;;-0.52;78.77;99481.91;1740817;80;21189;-80
2023/01/31 05:46:51;;;;;;;28.47;16.15;;;;;;;-0.38;78.49;99474.05;1730387;82;21248;-80
2023/01/31 05:49:53;;;;;;;28.52;15.32;;;;;;;-0.32;78.38;99476.25;1728385;83;21219;-81
2023/01/31 05:53:03;;;;;;;27.37;15.70;;;;;;;-0.30;78.49;99476.97;1729461;83;21925;-80
2023/01/31 05:56:10;;;;;;;25.70;15.90;;;;;;;-0.58;79.69;99477.05;1731990;81;21263;-81
2023/01/31 05:59:18;;;;;;;26.75;16.82;;;;;;;-0.45;79.55;99481.78;1732015;83;21212;-79
2023/01/31 06:02:18;;;;;;;22.60;13.60;;;;;;;-0.31;79.53;99482.84;1728077;81;21228;-79
2023/01/31 06:05:25;;;;;;;27.22;15.70;;;;;;;-0.22;79.29;99483.06;1747474;80;21156;-78
2023/01/31 06:08:31;;;;;;;29.80;17.52;;;;;;;-0.10;78.95;99489.59;1702583;83;21204;-79
2023/01/31 06:11:37;;;;;;;31.02;17.17;;;;;;;-0.16;79.35;99498.67;1722616;83;21212;-79
2023/01/31 06:14:45;;;;;;;27.40;16.77;;;;;;;0.10;78.90;99495.16;1700604;83;21823;-80
2023/01/31 06:17:49;;;;;;;30.70;17.87;;;;;;;0.16;78.72;99496.81;1716395;82;21272;-80
2023/01/31 06:20:50;;;;;;;24.87;15.90;;;;;;;0.07;79.42;99495.40;1718154;82;21248;-79
2023/01/31 06:23:57;;;;;;;29.10;16.48;;;;;;;-0.04;79.65;99493.62;1721377;83;21290;-80
2023/01/31 06:27:01;;;;;;;29.27;17.75;;;;;;;-0.04;79.93;99495.81;1713617;82;21217;-79
2023/01/31 06:30:10;;;;;;;30.97;16.35;;;;;;;-0.14;80.64;99503.41;1714366;82;21260;-80
2023/01/31 06:33:16;;;;;;;30.70;16.50;;;;;;;0.09;79.87;99502.34;1719393;82;21803;-79
2023/01/31 06:36:23;;;;;;;29.02;16.65;;;;;;;0.03;80.50;99504.70;1718471;82;21259;-80
2023/01/31 06:39:31;;;;;;;28.83;16.32;;;;;;;0.07;80.43;99496.25;1720501;82;21208;-80
2023/01/31 06:42:37;;;;;;;27.65;16.30;;;;;;;0.13;80.47;99494.38;1722276;82;21220;-81
2023/01/31 06:45:43;;;;;;;30.15;16.48;;;;;;;0.22;80.29;99500.32;1721097;82;21256;-81
2023/01/31 06:48:51;;;;;;;34.55;17.23;;;;;;;0.27;80.47;99498.59;1717686;82;21831;-78
2023/01/31 06:51:58;;;;;;;34.15;17.87;;;;;;;0.34;80.51;99490.87;1703838;82;21267;-80
2023/01/31 06:55:04;;;;;;;31.37;18.70;;;;;;;0.58;79.82;99492.78;1720705;83;21491;-79
2023/01/31 06:58:11;;;;;;;33.30;17.82;;;;;;;0.71;79.68;99488.55;1718209;82;21284;-79
2023/01/31 07:01:21;;;;;;;31.02;18.30;;;;;;;0.81;79.64;99491.28;1721711;82;21771;-80
2023/01/31 07:04:28;;;;;;;28.80;16.07;;;;;;;0.84;79.64;99495.88;1720242;82;21180;-80
2023/01/31 07:07:35;;;;;;;29.48;17.12;;;;;;;0.62;80.38;99494.23;1742177;82;21297;-80
2023/01/31 07:10:40;;;;;;;29.02;17.05;;;;;;;0.62;80.65;99496.92;1712077;83;21213;-80
2023/01/31 07:13:46;;;;;;;28.52;17.35;;;;;;;0.98;79.87;99490.63;1723120;82;21252;-80
2023/01/31 07:16:53;;;;;;;26.73;16.25;;;;;;;0.83;80.44;99487.95;1725938;81;21791;-79
2023/01/31 07:20:00;;;;;;;30.72;16.87;;;;;;;1.38;79.14;99483.91;1727718;83;21274;-78
2023/01/31 07:23:06;;;;;;;28.77;15.28;;;;;;;1.23;78.81;99483.45;1732679;81;21257;-80
2023/01/31 07:26:12;;;;;;;30.75;16.77;;;;;;;1.02;80.01;99487.53;1723673;81;21215;-79
2023/01/31 07:29:17;;;;;;;31.42;18.37;;;;;;;0.93;80.41;99496.42;1746507;82;21232;-79
2023/01/31 07:32:23;;;;;;;28.52;16.07;;;;;;;1.00;80.53;99500.80;1722803;81;21389;-80
2023/01/31 07:35:29;;;;;;;26.65;16.15;;;;;;;1.09;80.35;99495.95;1702737;83;21250;-79
2023/01/31 07:38:29;;;;;;;30.82;16.35;;;;;;;1.07;80.51;99484.44;1719982;82;21172;-80
2023/01/31 07:41:28;;;;;;;28.23;16.55;;;;;;;1.37;79.97;99486.75;1748294;80;21215;-79
2023/01/31 07:44:37;;;;;;;29.55;18.23;;;;;;;1.45;79.82;99499.02;1728171;82;21211;-80
2023/01/31 07:47:43;;;;;;;30.35;17.62;;;;;;;1.28;80.21;99499.20;1718304;82;21240;-79
2023/01/31 07:50:51;;;;;;;31.33;17.48;;;;;;;1.27;80.09;99492.97;1748287;82;21188;-79
2023/01/31 07:53:57;;;;;;;30.35;17.30;;;;;;;1.32;79.75;99480.89;1742130;81;21730;-79
2023/01/31 07:57:05;;;;;;;30.60;18.17;;;;;;;1.49;79.16;99487.83;1715194;82;21393;-80
2023/01/31 08:03:31;;;;;;;29.80;17.98;;;;;;;1.47;79.04;99484.93;1730269;81;21164;-80
2023/01/31 08:03:35;;;;;;;30.25;17.65;;;;;;;1.34;79.84;99485.67;1723190;82;21263;-80
2023/01/31 08:06:41;;;;;;;31.30;17.17;;;;;;;1.54;79.42;99481.52;1724927;82;21140;-81
2023/01/31 08:09:48;;;;;;;31.05;18.15;;;;;;;1.54;79.14;99481.52;1725921;82;21180;-81
2023/01/31 08:12:54;;;;;;;29.87;17.30;;;;;;;1.51;79.59;99485.02;1728662;81;21714;-81
2023/01/31 08:16:00;;;;;;;30.52;17.60;;;;;;;1.67;78.94;99488.01;1727687;82;21834;-81
2023/01/31 08:19:06;;;;;;;29.52;17.35;;;;;;;1.59;79.39;99498.63;1738022;82;21160;-80
2023/01/31 08:22:11;;;;;;;27.60;17.90;;;;;;;1.99;78.57;99497.70;1702107;83;21255;-81
2023/01/31 08:25:17;;;;;;;27.45;15.98;;;;;;;1.79;79.01;99501.73;1741920;80;21156;-81
2023/01/31 08:28:22;;;;;;;25.30;15.83;;;;;;;1.88;79.38;99501.36;1742559;80;21222;-81
2023/01/31 08:31:29;;;;;;;25.57;16.45;;;;;;;1.95;79.63;99501.66;1737042;81;21180;-81
2023/01/31 08:34:36;;;;;;;27.50;16.20;;;;;;;2.01;79.06;99493.00;1745061;81;21295;-81
2023/01/31 08:37:36;;;;;;;24.95;16.20;;;;;;;2.00;78.80;99492.16;1734293;82;21176;-80
2023/01/31 08:40:42;;;;;;;25.68;15.58;;;;;;;2.15;78.57;99493.92;1716465;82;21240;-80
2023/01/31 08:43:48;;;;;;;29.05;16.87;;;;;;;2.43;77.53;99491.34;1715810;82;21216;-80
2023/01/31 08:46:55;;;;;;;31.50;15.63;;;;;;;2.12;78.27;99488.83;1710713;83;21196;-80
2023/01/31 08:50:01;;;;;;;24.57;15.00;;;;;;;2.11;78.43;99486.25;1716587;83;22561;-79
2023/01/31 08:53:10;;;;;;;26.95;16.27;;;;;;;2.17;78.52;99481.66;1717705;83;21220;-80
2023/01/31 08:56:15;;;;;;;26.93;15.80;;;;;;;2.28;77.98;99485.55;1742775;80;21222;-79
2023/01/31 08:59:24;;;;;;;25.68;15.72;;;;;;;2.73;75.87;99488.45;1701267;82;21208;-79
2023/01/31 09:02:29;;;;;;;26.45;15.53;;;;;;;2.37;76.94;99481.98;1724415;81;21241;-80
2023/01/31 09:05:36;;;;;;;29.45;16.80;;;;;;;2.24;76.96;99480.92;1722032;83;21168;-79
2023/01/31 09:08:41;;;;;;;30.37;17.50;;;;;;;2.19;77.46;99486.41;1733746;80;21176;-80
2023/01/31 09:11:47;;;;;;;26.85;16.30;;;;;;;2.23;77.74;99483.77;1711104;82;21223;-79
2023/01/31 09:14:54;;;;;;;25.97;15.95;;;;;;;2.62;76.27;99480.51;1720089;83;21231;-79
2023/01/31 09:17:59;;;;;;;28.23;15.95;;;;;;;2.35;76.90;99483.95;1719072;83;21501;-79
2023/01/31 09:21:05;;;;;;;30.77;17.30;;;;;;;2.40;76.95;99482.17;1716095;83;21205;-80
2023/01/31 09:24:11;;;;;;;27.50;16.20;;;;;;;2.40;77.42;99480.36;1718958;82;21846;-80
2023/01/31 09:27:17;;;;;;;28.23;14.95;;;;;;;2.99;75.65;99477.84;1718532;83;21213;-80
2023/01/31 09:30:23;;;;;;;26.27;14.87;;;;;;;2.86;74.68;99481.86;1740992;81;21800;-79
2023/01/31 09:33:31;;;;;;;23.12;13.58;;;;;;;2.96;74.79;99477.27;1732826;82;21222;-79
2023/01/31 09:36:36;;;;;;;21.80;13.22;;;;;;;2.67;75.51;99473.32;1709111;82;21183;-79
2023/01/31 09:39:41;;;;;;;24.67;13.70;;;;;;;2.71;75.82;99473.38;1729787;82;21216;-80
2023/01/31 09:43:09;;;;;;;24.85;13.60;;;;;;;3.08;74.71;99480.15;1726609;82;21560;-79
2023/01/31 09:46:24;;;;;;;24.82;15.08;;;;;;;2.91;74.48;99477.72;1771112;79;21201;-79
2023/01/31 09:49:33;;;;;;;23.10;13.95;;;;;;;2.98;74.68;99480.70;1800539;78;21135;-80
2023/01/31 09:52:39;;;;;;;26.70;14.75;;;;;;;2.95;74.43;99471.52;1807594;78;21166;-88
2023/01/31 09:55:52;;;;;;;25.62;14.90;;;;;;;2.87;74.90;99472.28;1809826;78;21179;-89
2023/01/31 09:59:20;;;;;;;24.30;14.13;;;;;;;2.57;76.06;99474.70;1803256;78;21226;-88
2023/01/31 10:03:00;;;;;;;22.87;14.40;;;;;;;2.61;76.38;99474.76;1827164;78;21868;-79
2023/01/31 10:06:17;;;;;;;22.55;14.75;;;;;;;2.64;75.89;99472.28;1810286;78;21178;-79
2023/01/31 10:09:43;;;;;;;22.25;13.88;;;;;;;2.63;75.74;99473.25;1783258;78;21181;-79
2023/01/31 10:12:58;;;;;;;19.80;13.35;;;;;;;2.51;76.03;99467.19;1794884;79;21187;-80
2023/01/31 10:16:29;;;;;;;21.50;14.60;;;;;;;2.34;77.05;99465.22;1843112;77;21187;-79
2023/01/31 10:19:57;;;;;;;23.27;13.90;;;;;;;2.41;77.21;99464.52;1782105;79;21153;-88
2023/01/31 10:23:16;;;;;;;23.73;14.60;;;;;;;2.39;77.47;99462.44;1778456;79;21230;-79
2023/01/31 10:26:35;;;;;;;28.75;14.58;;;;;;;2.37;77.59;99454.14;1798448;78;21689;-80
2023/01/31 10:29:47;;;;;;;25.65;14.15;;;;;;;2.47;77.42;99454.47;1817081;77;21162;-80
2023/01/31 10:32:54;;;;;;;23.07;14.80;;;;;;;2.41;77.34;99454.22;1791135;79;21182;-80
2023/01/31 10:36:00;;;;;;;24.07;15.53;;;;;;;2.36;78.12;99453.80;1822324;77;21157;-81
2023/01/31 10:39:21;;;;;;;25.60;13.83;;;;;;;2.78;77.22;99456.45;1801120;78;21148;-79
2023/01/31 10:42:43;;;;;;;26.37;15.10;;;;;;;2.71;77.14;99458.53;1810807;78;21199;-79
2023/01/31 10:45:50;;;;;;;21.42;13.08;;;;;;;3.00;76.32;99450.31;1824218;77;21147;-80
2023/01/31 10:48:49;;;;;;;23.55;13.95;;;;;;;2.69;76.78;99455.98;1789007;78;21136;-79
2023/01/31 10:52:03;;;;;;;23.83;13.93;;;;;;;2.78;76.69;99448.86;1797363;78;21141;-79
2023/01/31 10:55:14;;;;;;;21.52;12.85;;;;;;;2.65;77.01;99447.83;1800765;78;21132;-79
2023/01/31 10:58:23;;;;;;;22.98;13.43;;;;;;;2.75;76.58;99443.74;1800672;78;21164;-78
2023/01/31 11:01:29;;;;;;;21.48;12.68;;;;;;;2.83;76.04;99445.21;1815347;77;21460;-79
2023/01/31 11:04:39;;;;;;;21.05;12.47;;;;;;;3.15;75.46;99437.16;1785966;79;21164;-80
2023/01/31 11:07:45;;;;;;;22.05;13.22;;;;;;;3.19;75.29;99433.16;1802732;78;21167;-79
2023/01/31 11:11:01;;;;;;;23.45;13.58;;;;;;;2.95;75.64;99441.81;1800146;78;21123;-79
2023/01/31 11:14:11;;;;;;;20.10;13.28;;;;;;;2.82;76.51;99434.03;1795888;78;21187;-79
2023/01/31 11:17:30;;;;;;;25.90;13.50;;;;;;;2.90;76.37;99437.36;1798703;78;21223;-79
2023/01/31 11:20:42;;;;;;;19.98;12.73;;;;;;;3.00;75.68;99434.11;1805476;78;21526;-80
2023/01/31 11:23:50;;;;;;;19.05;12.80;;;;;;;3.07;75.28;99432.52;1811468;78;21188;-80
2023/01/31 11:27:04;;;;;;;21.17;13.32;;;;;;;3.10;75.07;99425.45;1816880;78;21143;-79
2023/01/31 11:30:12;;;;;;;21.07;13.88;;;;;;;2.93;75.46;99424.91;1800497;78;21481;-80
2023/01/31 11:33:28;;;;;;;22.75;14.18;;;;;;;2.91;76.13;99420.14;1789312;78;21212;-80
2023/01/31 11:36:23;;;;;;;;;;;;;;;2.82;76.49;99421.87;1746276;79;21211;-81
2023/01/31 11:39:33;;;;;;;23.95;15.10;;;;;;;2.92;76.18;99420.52;1765459;80;20219;-79
2023/01/31 11:42:26;;;;;;;23.05;14.40;;;;;;;2.92;76.46;99419.16;1778792;79;21713;-79
2023/01/31 11:45:36;;;;;;;30.10;16.00;;;;;;;2.90;75.88;99420.64;1783603;79;21754;-79
2023/01/31 11:48:50;;;;;;;21.93;13.90;;;;;;;2.75;76.01;99415.39;1750743;80;21170;-79
2023/01/31 11:51:55;;;;;;;25.23;13.80;;;;;;;2.63;76.13;99422.80;1761524;80;21247;-79
2023/01/31 11:55:14;;;;;;;21.30;13.45;;;;;;;2.56;76.34;99424.41;1770744;80;21152;-79
2023/01/31 11:58:35;;;;;;;25.75;13.18;;;;;;;2.74;75.54;99417.23;1751818;80;21175;-79
2023/01/31 12:01:41;;;;;;;32.20;15.72;;;;;;;2.58;76.66;99416.15;1763085;80;21203;-79
2023/01/31 12:04:47;;;;;;;25.80;14.73;;;;;;;2.48;77.29;99421.58;1781462;80;21165;-79
2023/01/31 12:07:58;;;;;;;26.05;15.03;;;;;;;2.63;77.07;99420.10;1781168;80;21139;-79
2023/01/31 12:11:03;;;;;;;26.45;13.60;;;;;;;2.29;77.86;99426.02;1766885;80;21226;-80
2023/01/31 12:14:23;;;;;;;23.02;14.93;;;;;;;2.55;77.30;99424.06;1746100;80;21214;-81
2023/01/31 12:17:30;;;;;;;28.87;14.47;;;;;;;2.39;77.13;99431.90;1777599;80;21621;-89
2023/01/31 12:20:53;;;;;;;26.77;15.55;;;;;;;2.37;77.59;99433.91;1764796;80;21171;-80
2023/01/31 12:24:12;;;;;;;26.25;16.10;;;;;;;2.03;78.54;99430.34;1777303;80;21200;-80
2023/01/31 12:27:41;;;;;;;29.57;16.40;;;;;;;1.89;79.05;99429.42;1775614;79;21738;-88
2023/01/31 12:30:59;;;;;;;28.62;15.05;;;;;;;1.89;79.37;99434.32;1780386;79;21173;-88
2023/01/31 12:34:30;;;;;;;27.77;15.80;;;;;;;1.98;79.82;99436.16;1752201;80;21200;-80
2023/01/31 12:37:42;;;;;;;28.40;16.90;;;;;;;1.99;79.54;99438.36;1749356;80;21163;-88
2023/01/31 12:41:09;;;;;;;28.05;16.48;;;;;;;2.02;79.18;99438.93;1761528;80;21137;-79
2023/01/31 12:44:18;;;;;;;32.38;18.25;;;;;;;1.85;79.94;99440.14;1751973;80;21552;-80
2023/01/31 12:48:04;;;;;;;32.15;17.27;;;;;;;2.03;79.96;99443.83;1786909;77;21186;-89
2023/01/31 12:51:29;;;;;;;27.00;17.48;;;;;;;1.89;80.63;99446.45;1824302;77;21148;-79
2023/01/31 12:55:05;;;;;;;27.58;17.92;;;;;;;2.25;79.59;99440.80;1793351;79;21261;-79
2023/01/31 12:58:38;;;;;;;28.60;18.35;;;;;;;2.25;78.94;99447.54;1794102;79;21155;-83
2023/01/31 13:01:56;;;;;;;26.00;15.90;;;;;;;2.38;78.70;99441.00;1790964;80;21197;-80
2023/01/31 13:05:28;;;;;;;29.50;18.05;;;;;;;2.18;78.94;99445.58;1795163;80;21157;-79
2023/01/31 13:08:37;;;;;;;30.55;19.27;;;;;;;2.15;79.19;99452.10;1789978;80;21199;-88
2023/01/31 13:11:50;;;;;;;27.07;16.15;;;;;;;2.18;79.09;99454.52;1790767;80;21683;-89
2023/01/31 13:15:12;;;;;;;28.17;17.65;;;;;;;2.25;78.94;99448.89;1794595;79;21151;-81
2023/01/31 13:18:19;;;;;;;27.67;16.65;;;;;;;2.27;78.65;99450.97;1790254;79;21159;-90
2023/01/31 13:21:31;;;;;;;26.77;16.82;;;;;;;2.22;78.78;99449.20;1805476;78;21843;-79
2023/01/31 13:24:43;;;;;;;24.27;16.65;;;;;;;2.25;78.78;99447.54;1834466;78;21811;-79
2023/01/31 13:27:52;;;;;;;27.65;16.05;;;;;;;2.21;79.17;99439.88;1809997;77;21761;-79
2023/01/31 13:31:05;;;;;;;24.98;15.78;;;;;;;1.92;80.30;99445.30;1804172;78;21167;-80
2023/01/31 13:34:28;;;;;;;25.80;16.02;;;;;;;1.99;80.31;99442.41;1820290;78;21206;-79
2023/01/31 13:37:34;;;;;;;26.42;16.10;;;;;;;2.06;79.98;99440.82;1801353;78;21716;-89
2023/01/31 13:40:59;;;;;;;23.73;14.55;;;;;;;2.05;79.93;99443.17;1769509;81;21153;-89
2023/01/31 13:44:05;;;;;;;27.50;15.38;;;;;;;2.02;79.73;99450.19;1800129;78;21145;-88
2023/01/31 13:47:21;;;;;;;27.35;15.70;;;;;;;1.83;80.32;99446.15;1788070;77;21230;-89
2023/01/31 13:50:48;;;;;;;28.77;17.15;;;;;;;1.73;80.36;99449.69;1794600;79;21615;-91
2023/01/31 13:54:01;;;;;;;27.77;15.95;;;;;;;1.92;80.33;99457.44;1740915;81;21760;-79
2023/01/31 13:57:08;;;;;;;30.08;16.82;;;;;;;1.73;80.93;99463.17;1780651;79;21199;-79
2023/01/31 14:00:34;;;;;;;29.48;17.25;;;;;;;1.88;80.69;99457.36;1766761;81;21151;-80
2023/01/31 14:04:00;;;;;;;29.57;16.85;;;;;;;1.92;80.62;99466.38;1763451;81;21228;-80
2023/01/31 14:07:20;;;;;;;24.77;16.25;;;;;;;1.80;80.88;99472.92;1745697;81;21188;-88
2023/01/31 14:10:29;;;;;;;;;;;;;;;1.83;80.82;99469.07;1742143;82;21206;-89
2023/01/31 14:13:41;;;;;;;26.33;15.80;;;;;;;1.79;81.05;99472.07;1768862;81;20188;-87
2023/01/31 14:16:44;;;;;;;23.35;14.63;;;;;;;1.83;80.46;99472.61;1756917;81;21248;-88
2023/01/31 14:19:57;;;;;;;29.50;15.85;;;;;;;1.77;80.60;99477.23;1761392;81;21817;-80
2023/01/31 14:23:50;;;;;;;28.83;16.32;;;;;;;1.71;81.26;99479.16;1751102;81;21553;-80
2023/01/31 14:27:00;;;;;;;32.17;15.53;;;;;;;1.74;81.45;99469.41;1682174;84;21880;-80
2023/01/31 14:30:18;;;;;;;29.57;16.82;;;;;;;1.61;82.15;99472.91;1695258;83;21187;-79
2023/01/31 14:33:26;;;;;;;25.95;15.63;;;;;;;1.74;81.59;99470.30;1740772;82;21234;-86
2023/01/31 14:36:37;;;;;;;27.85;15.78;;;;;;;1.75;81.72;99473.84;1738921;82;21228;-87
2023/01/31 14:40:03;;;;;;;24.70;15.10;;;;;;;1.43;82.59;99471.37;1710059;83;21157;-88
2023/01/31 14:43:33;;;;;;;28.50;16.45;;;;;;;1.39;83.50;99473.98;1708738;84;21260;-80
2023/01/31 14:47:28;;;;;;;25.95;15.90;;;;;;;1.58;82.91;99467.28;1709896;84;21240;-81